createdAt,value
2019-04-16T00:00:59.491Z,1020.09
2019-04-16T00:01:59.524Z,1020.07
2019-04-16T00:02:59.452Z,1020.08
2019-04-16T00:03:59.439Z,1020.08
2019-04-16T00:04:59.567Z,1020.09
2019-04-16T00:05:59.828Z,1020.08
2019-04-16T00:06:59.565Z,1020.07
2019-04-16T00:07:59.340Z,1020.05
2019-04-16T00:08:59.318Z,1020.09
2019-04-16T00:09:59.296Z,1020.07
2019-04-16T00:10:59.277Z,1020.06
2019-04-16T00:11:59.252Z,1020.05
2019-04-16T00:12:59.231Z,1020.04
2019-04-16T00:14:02.999Z,1020.04
2019-04-16T00:14:59.185Z,1020.03
2019-04-16T00:15:59.166Z,1020.05
2019-04-16T00:16:59.141Z,1020.03
2019-04-16T00:17:59.122Z,1020.00
2019-04-16T00:19:04.421Z,1019.98
2019-04-16T00:19:59.081Z,1019.97
2019-04-16T00:20:59.055Z,1019.95
2019-04-16T00:21:59.047Z,1019.97
2019-04-16T00:22:59.010Z,1019.92
2019-04-16T00:23:58.990Z,1019.91
2019-04-16T00:24:58.965Z,1019.88
2019-04-16T00:25:58.948Z,1019.88
2019-04-16T00:27:00.007Z,1019.87
2019-04-16T00:27:59.979Z,1019.84
2019-04-16T00:29:01.659Z,1019.88
2019-04-16T00:30:04.139Z,1019.83
2019-04-16T00:30:58.847Z,1019.82
2019-04-16T00:31:58.811Z,1019.80
2019-04-16T00:32:58.788Z,1019.81
2019-04-16T00:33:58.766Z,1019.77
2019-04-16T00:34:58.896Z,1019.77
2019-04-16T00:35:58.719Z,1019.80
2019-04-16T00:36:58.696Z,1019.77
2019-04-16T00:37:58.678Z,1019.74
2019-04-16T00:38:58.665Z,1019.77
2019-04-16T00:39:58.637Z,1019.75
2019-04-16T00:41:01.360Z,1019.73
2019-04-16T00:41:58.591Z,1019.74
2019-04-16T00:42:58.571Z,1019.75
2019-04-16T00:43:58.551Z,1019.70
2019-04-16T00:44:58.528Z,1019.75
2019-04-16T00:45:58.501Z,1019.75
2019-04-16T00:46:58.635Z,1019.73
2019-04-16T00:47:58.471Z,1019.70
2019-04-16T00:48:58.438Z,1019.69
2019-04-16T00:49:59.551Z,1019.71
2019-04-16T00:50:58.387Z,1019.71
2019-04-16T00:51:58.369Z,1019.69
2019-04-16T00:52:58.348Z,1019.66
2019-04-16T00:53:58.325Z,1019.67
2019-04-16T00:54:58.305Z,1019.62
2019-04-16T00:55:58.279Z,1019.60
2019-04-16T00:56:58.259Z,1019.61
2019-04-16T00:57:58.241Z,1019.59
2019-04-16T00:58:58.215Z,1019.63
2019-04-16T01:00:58.173Z,1019.62
2019-04-16T01:01:58.223Z,1019.61
2019-04-16T01:02:58.406Z,1019.60
2019-04-16T01:03:58.356Z,1019.61
2019-04-16T01:04:58.270Z,1019.62
2019-04-16T01:05:58.059Z,1019.60
2019-04-16T01:06:58.039Z,1019.61
2019-04-16T01:07:58.016Z,1019.55
2019-04-16T01:08:57.997Z,1019.55
2019-04-16T01:09:57.976Z,1019.57
2019-04-16T01:10:57.956Z,1019.57
2019-04-16T01:11:57.927Z,1019.60
2019-04-16T01:12:57.905Z,1019.68
2019-04-16T01:13:57.879Z,1019.72
2019-04-16T01:15:00.678Z,1019.73
2019-04-16T01:16:02.462Z,1019.65
2019-04-16T01:16:57.818Z,1019.66
2019-04-16T01:17:57.791Z,1019.70
2019-04-16T01:18:57.773Z,1019.64
2019-04-16T01:19:57.761Z,1019.58
2019-04-16T01:20:57.722Z,1019.62
2019-04-16T01:21:57.704Z,1019.60
2019-04-16T01:22:57.683Z,1019.57
2019-04-16T01:23:57.658Z,1019.62
2019-04-16T01:24:57.640Z,1019.57
2019-04-16T01:25:57.615Z,1019.60
2019-04-16T01:26:58.387Z,1019.58
2019-04-16T01:28:00.966Z,1019.59
2019-04-16T01:28:57.564Z,1019.56
2019-04-16T01:29:57.602Z,1019.56
2019-04-16T01:30:57.650Z,1019.59
2019-04-16T01:31:57.652Z,1019.55
2019-04-16T01:32:57.462Z,1019.55
2019-04-16T01:33:57.439Z,1019.50
2019-04-16T01:34:57.568Z,1019.55
2019-04-16T01:35:57.546Z,1019.56
2019-04-16T01:36:57.368Z,1019.50
2019-04-16T01:37:57.714Z,1019.56
2019-04-16T01:39:11.010Z,1019.54
2019-04-16T01:39:57.304Z,1019.57
2019-04-16T01:40:57.280Z,1019.57
2019-04-16T01:41:57.267Z,1019.59
2019-04-16T01:42:57.231Z,1019.65
2019-04-16T01:43:57.888Z,1019.62
2019-04-16T01:44:59.785Z,1019.64
2019-04-16T01:46:00.758Z,1019.61
2019-04-16T01:46:57.146Z,1019.59
2019-04-16T01:47:57.134Z,1019.63
2019-04-16T01:48:57.100Z,1019.59
2019-04-16T01:49:57.081Z,1019.61
2019-04-16T01:50:57.060Z,1019.61
2019-04-16T01:51:57.036Z,1019.62
2019-04-16T01:52:57.012Z,1019.56
2019-04-16T01:53:56.995Z,1019.59
2019-04-16T01:54:56.972Z,1019.59
2019-04-16T01:55:57.702Z,1019.60
2019-04-16T01:56:59.515Z,1019.58
2019-04-16T01:57:59.645Z,1019.62
2019-04-16T01:58:56.879Z,1019.56
2019-04-16T01:59:56.858Z,1019.55
2019-04-16T02:00:56.832Z,1019.59
2019-04-16T02:01:56.808Z,1019.56
2019-04-16T02:02:56.788Z,1019.53
2019-04-16T02:03:56.766Z,1019.54
2019-04-16T02:04:56.746Z,1019.53
2019-04-16T02:05:56.724Z,1019.51
2019-04-16T02:06:57.196Z,1019.50
2019-04-16T02:07:59.279Z,1019.53
2019-04-16T02:09:01.866Z,1019.52
2019-04-16T02:09:56.633Z,1019.51
2019-04-16T02:10:56.612Z,1019.48
2019-04-16T02:11:56.586Z,1019.51
2019-04-16T02:12:56.565Z,1019.54
2019-04-16T02:13:56.546Z,1019.49
2019-04-16T02:14:56.516Z,1019.50
2019-04-16T02:15:56.501Z,1019.50
2019-04-16T02:16:56.732Z,1019.50
2019-04-16T02:17:58.810Z,1019.55
2019-04-16T02:19:00.766Z,1019.52
2019-04-16T02:19:56.410Z,1019.56
2019-04-16T02:20:56.386Z,1019.54
2019-04-16T02:21:56.363Z,1019.52
2019-04-16T02:22:56.342Z,1019.60
2019-04-16T02:23:56.320Z,1019.53
2019-04-16T02:24:56.299Z,1019.57
2019-04-16T02:25:56.272Z,1019.57
2019-04-16T02:26:56.252Z,1019.57
2019-04-16T02:27:56.998Z,1019.61
2019-04-16T02:28:56.542Z,1019.62
2019-04-16T02:29:58.577Z,1019.57
2019-04-16T02:30:56.180Z,1019.64
2019-04-16T02:31:56.141Z,1019.61
2019-04-16T02:32:56.119Z,1019.63
2019-04-16T02:33:56.101Z,1019.63
2019-04-16T02:34:56.078Z,1019.65
2019-04-16T02:35:56.053Z,1019.65
2019-04-16T02:37:00.283Z,1019.65
2019-04-16T02:37:56.007Z,1019.64
2019-04-16T02:38:55.980Z,1019.67
2019-04-16T02:39:55.963Z,1019.68
2019-04-16T02:40:55.965Z,1019.66
2019-04-16T02:41:58.071Z,1019.66
2019-04-16T02:42:55.896Z,1019.65
2019-04-16T02:43:55.875Z,1019.70
2019-04-16T02:44:55.849Z,1019.66
2019-04-16T02:45:58.059Z,1019.68
2019-04-16T02:46:55.809Z,1019.66
2019-04-16T02:47:55.783Z,1019.64
2019-04-16T02:48:55.760Z,1019.68
2019-04-16T02:49:56.744Z,1019.66
2019-04-16T02:50:55.711Z,1019.67
2019-04-16T02:51:55.705Z,1019.63
2019-04-16T02:52:55.670Z,1019.68
2019-04-16T02:53:58.710Z,1019.65
2019-04-16T02:54:55.631Z,1019.63
2019-04-16T02:55:55.605Z,1019.61
2019-04-16T02:56:55.580Z,1019.65
2019-04-16T02:57:59.507Z,1019.70
2019-04-16T02:58:55.547Z,1019.69
2019-04-16T02:59:55.509Z,1019.61
2019-04-16T03:00:55.493Z,1019.62
2019-04-16T03:01:55.465Z,1019.63
2019-04-16T03:02:55.443Z,1019.62
2019-04-16T03:03:56.418Z,1019.61
2019-04-16T03:04:58.213Z,1019.61
2019-04-16T03:05:55.377Z,1019.64
2019-04-16T03:06:55.361Z,1019.62
2019-04-16T03:07:55.333Z,1019.60
2019-04-16T03:08:55.310Z,1019.60
2019-04-16T03:10:01.661Z,1019.59
2019-04-16T03:10:55.264Z,1019.62
2019-04-16T03:11:55.241Z,1019.58
2019-04-16T03:15:38.447Z,1019.53
2019-04-16T03:16:38.776Z,1019.56
2019-04-16T03:17:39.606Z,1019.55
2019-04-16T03:18:41.003Z,1019.54
2019-04-16T03:19:39.002Z,1019.57
2019-04-16T03:20:38.341Z,1019.54
2019-04-16T03:21:38.320Z,1019.57
2019-04-16T03:22:38.293Z,1019.54
2019-04-16T03:23:38.273Z,1019.56
2019-04-16T03:24:40.170Z,1019.55
2019-04-16T03:25:38.227Z,1019.55
2019-04-16T03:26:38.202Z,1019.55
2019-04-16T03:27:38.179Z,1019.56
2019-04-16T03:28:38.156Z,1019.55
2019-04-16T03:29:38.135Z,1019.57
2019-04-16T03:30:42.222Z,1019.60
2019-04-16T03:31:38.089Z,1019.58
2019-04-16T03:32:38.076Z,1019.59
2019-04-16T03:33:38.046Z,1019.63
2019-04-16T03:34:38.016Z,1019.61
2019-04-16T03:35:37.998Z,1019.59
2019-04-16T03:36:37.979Z,1019.57
2019-04-16T03:37:37.953Z,1019.57
2019-04-16T03:38:41.919Z,1019.62
2019-04-16T03:39:37.909Z,1019.60
2019-04-16T03:40:37.887Z,1019.59
2019-04-16T03:41:37.866Z,1019.56
2019-04-16T03:42:37.841Z,1019.53
2019-04-16T03:43:37.819Z,1019.54
2019-04-16T03:44:37.800Z,1019.56
2019-04-16T03:45:40.494Z,1019.56
2019-04-16T03:46:40.027Z,1019.56
2019-04-16T03:47:37.731Z,1019.54
2019-04-16T03:48:37.707Z,1019.55
2019-04-16T03:49:37.683Z,1019.54
2019-04-16T03:50:37.663Z,1019.57
2019-04-16T03:51:37.643Z,1019.61
2019-04-16T03:52:40.897Z,1019.53
2019-04-16T03:53:37.594Z,1019.55
2019-04-16T03:54:37.611Z,1019.54
2019-04-16T03:55:37.547Z,1019.56
2019-04-16T03:56:37.528Z,1019.56
2019-04-16T03:57:37.503Z,1019.54
2019-04-16T03:58:38.766Z,1019.57
2019-04-16T03:59:40.021Z,1019.54
2019-04-16T04:00:37.455Z,1019.59
2019-04-16T04:01:37.414Z,1019.61
2019-04-16T04:02:37.389Z,1019.56
2019-04-16T04:03:37.369Z,1019.59
2019-04-16T04:04:37.345Z,1019.59
2019-04-16T04:05:37.324Z,1019.57
2019-04-16T04:06:39.638Z,1019.56
2019-04-16T04:07:37.278Z,1019.53
2019-04-16T04:08:37.322Z,1019.54
2019-04-16T04:09:37.227Z,1019.58
2019-04-16T04:10:37.946Z,1019.58
2019-04-16T04:11:40.832Z,1019.56
2019-04-16T04:12:37.165Z,1019.61
2019-04-16T04:13:37.144Z,1019.58
2019-04-16T04:14:37.114Z,1019.51
2019-04-16T04:15:37.091Z,1019.53
2019-04-16T04:16:37.074Z,1019.57
2019-04-16T04:17:38.730Z,1019.55
2019-04-16T04:18:37.028Z,1019.54
2019-04-16T04:19:37.004Z,1019.51
2019-04-16T04:20:36.980Z,1019.52
2019-04-16T04:21:36.954Z,1019.59
2019-04-16T04:22:36.935Z,1019.58
2019-04-16T04:23:36.914Z,1019.57
2019-04-16T04:24:36.888Z,1019.62
2019-04-16T04:25:37.102Z,1019.61
2019-04-16T04:26:40.880Z,1019.59
2019-04-16T04:27:36.828Z,1019.60
2019-04-16T04:28:36.802Z,1019.60
2019-04-16T04:29:36.778Z,1019.65
2019-04-16T04:30:36.753Z,1019.63
2019-04-16T04:31:36.738Z,1019.61
2019-04-16T04:32:36.713Z,1019.62
2019-04-16T04:33:40.751Z,1019.61
2019-04-16T04:34:36.665Z,1019.58
2019-04-16T04:35:36.643Z,1019.64
2019-04-16T04:36:36.621Z,1019.62
2019-04-16T04:37:36.601Z,1019.64
2019-04-16T04:38:37.576Z,1019.66
2019-04-16T04:39:36.553Z,1019.62
2019-04-16T04:40:44.367Z,1019.62
2019-04-16T04:41:36.510Z,1019.60
2019-04-16T04:42:36.485Z,1019.64
2019-04-16T04:43:36.460Z,1019.65
2019-04-16T04:44:37.140Z,1019.68
2019-04-16T04:45:37.650Z,1019.70
2019-04-16T04:46:36.390Z,1019.71
2019-04-16T04:47:36.368Z,1019.71
2019-04-16T04:48:36.346Z,1019.70
2019-04-16T04:49:36.318Z,1019.73
2019-04-16T04:50:36.298Z,1019.75
2019-04-16T04:51:39.795Z,1019.80
2019-04-16T04:52:36.257Z,1019.79
2019-04-16T04:53:36.233Z,1019.82
2019-04-16T04:54:36.222Z,1019.78
2019-04-16T04:55:36.184Z,1019.81
2019-04-16T04:56:36.168Z,1019.77
2019-04-16T04:57:36.137Z,1019.81
2019-04-16T04:58:36.122Z,1019.83
2019-04-16T04:59:36.743Z,1019.78
2019-04-16T05:00:37.429Z,1019.83
2019-04-16T05:01:36.055Z,1019.79
2019-04-16T05:02:36.027Z,1019.80
2019-04-16T05:03:36.006Z,1019.78
2019-04-16T05:04:35.993Z,1019.76
2019-04-16T05:05:35.957Z,1019.77
2019-04-16T05:06:35.940Z,1019.75
2019-04-16T05:07:35.915Z,1019.74
2019-04-16T05:08:35.894Z,1019.77
2019-04-16T05:09:36.761Z,1019.69
2019-04-16T05:10:39.877Z,1019.73
2019-04-16T05:11:35.823Z,1019.72
2019-04-16T05:12:35.808Z,1019.77
2019-04-16T05:13:35.780Z,1019.74
2019-04-16T05:14:35.755Z,1019.74
2019-04-16T05:15:35.739Z,1019.79
2019-04-16T05:16:35.711Z,1019.76
2019-04-16T05:17:38.483Z,1019.79
2019-04-16T05:18:41.392Z,1019.78
2019-04-16T05:19:35.644Z,1019.82
2019-04-16T05:20:35.625Z,1019.81
2019-04-16T05:21:35.599Z,1019.80
2019-04-16T05:22:35.581Z,1019.84
2019-04-16T05:23:37.742Z,1019.85
2019-04-16T05:25:35.511Z,1019.84
2019-04-16T05:26:36.596Z,1019.86
2019-04-16T05:27:39.936Z,1019.84
2019-04-16T05:28:35.434Z,1019.87
2019-04-16T05:29:35.415Z,1019.87
2019-04-16T05:30:35.393Z,1019.85
2019-04-16T05:31:35.372Z,1019.87
2019-04-16T05:32:35.348Z,1019.86
2019-04-16T05:33:37.415Z,1019.85
2019-04-16T05:34:37.387Z,1019.82
2019-04-16T05:35:35.286Z,1019.87
2019-04-16T05:36:35.259Z,1019.85
2019-04-16T05:37:35.235Z,1019.85
2019-04-16T05:38:35.214Z,1019.84
2019-04-16T05:39:35.191Z,1019.88
2019-04-16T05:40:35.356Z,1019.87
2019-04-16T05:41:35.147Z,1019.87
2019-04-16T05:42:35.130Z,1019.83
2019-04-16T05:43:35.101Z,1019.83
2019-04-16T05:44:35.078Z,1019.80
2019-04-16T05:45:37.687Z,1019.78
2019-04-16T05:46:35.043Z,1019.79
2019-04-16T05:47:35.012Z,1019.82
2019-04-16T05:48:34.984Z,1019.83
2019-04-16T05:49:34.965Z,1019.82
2019-04-16T05:50:34.940Z,1019.85
2019-04-16T05:51:34.915Z,1019.84
2019-04-16T05:52:35.730Z,1019.87
2019-04-16T05:53:37.325Z,1019.89
2019-04-16T05:54:34.854Z,1019.85
2019-04-16T05:55:34.833Z,1019.88
2019-04-16T05:56:34.810Z,1019.91
2019-04-16T05:57:34.786Z,1019.90
2019-04-16T05:58:34.765Z,1019.92
2019-04-16T05:59:34.745Z,1019.88
2019-04-16T06:00:34.748Z,1019.93
2019-04-16T06:01:34.697Z,1019.94
2019-04-16T06:02:34.678Z,1019.93
2019-04-16T06:03:34.655Z,1019.95
2019-04-16T06:04:35.642Z,1019.95
2019-04-16T06:05:34.610Z,1019.96
2019-04-16T06:06:34.586Z,1019.92
2019-04-16T06:07:37.798Z,1019.96
2019-04-16T06:08:34.539Z,1019.95
2019-04-16T06:09:34.518Z,1019.99
2019-04-16T06:10:34.497Z,1019.90
2019-04-16T06:11:36.484Z,1019.96
2019-04-16T06:12:34.549Z,1019.95
2019-04-16T06:13:34.434Z,1020.00
2019-04-16T06:14:34.406Z,1019.94
2019-04-16T06:15:35.945Z,1020.02
2019-04-16T06:16:34.364Z,1019.95
2019-04-16T06:17:34.341Z,1019.99
2019-04-16T06:18:38.049Z,1020.02
2019-04-16T06:19:34.294Z,1019.90
2019-04-16T06:20:34.278Z,1019.92
2019-04-16T06:21:34.251Z,1019.95
2019-04-16T06:22:34.230Z,1019.97
2019-04-16T06:23:34.224Z,1019.97
2019-04-16T06:24:35.810Z,1019.96
2019-04-16T06:25:34.167Z,1019.98
2019-04-16T06:26:34.153Z,1019.94
2019-04-16T06:27:34.117Z,1020.00
2019-04-16T06:28:34.099Z,1019.98
2019-04-16T06:29:34.073Z,1020.01
2019-04-16T06:30:34.163Z,1020.02
2019-04-16T06:31:36.279Z,1019.99
2019-04-16T06:32:34.013Z,1020.06
2019-04-16T06:33:33.986Z,1020.07
2019-04-16T06:34:33.966Z,1020.07
2019-04-16T06:35:43.235Z,1020.09
2019-04-16T06:36:33.925Z,1020.10
2019-04-16T06:37:33.900Z,1020.06
2019-04-16T06:38:33.878Z,1020.07
2019-04-16T06:39:33.856Z,1020.04
2019-04-16T06:40:33.840Z,1020.13
2019-04-16T06:41:41.584Z,1020.28
2019-04-16T06:42:33.789Z,1020.47
2019-04-16T06:43:33.783Z,1019.99
2019-04-16T06:44:35.062Z,1020.56
2019-04-16T06:45:37.003Z,1020.58
2019-04-16T06:46:33.707Z,1020.61
2019-04-16T06:47:33.688Z,1020.57
2019-04-16T06:48:33.664Z,1020.59
2019-04-16T06:49:34.617Z,1020.61
2019-04-16T06:50:39.654Z,1020.68
2019-04-16T06:51:33.606Z,1020.67
2019-04-16T06:52:33.581Z,1020.74
2019-04-16T06:53:33.565Z,1020.79
2019-04-16T06:54:33.540Z,1020.79
2019-04-16T06:55:36.017Z,1020.83
2019-04-16T06:56:33.500Z,1020.78
2019-04-16T06:57:33.491Z,1020.87
2019-04-16T06:58:49.852Z,1020.89
2019-04-16T06:59:33.449Z,1020.97
2019-04-16T07:01:25.963Z,1021.06
2019-04-16T07:02:25.944Z,1021.15
2019-04-16T07:03:27.382Z,1021.17
2019-04-16T07:04:29.558Z,1021.36
2019-04-16T07:05:25.890Z,1021.63
2019-04-16T07:06:25.876Z,1021.73
2019-04-16T07:07:38.552Z,1021.85
2019-04-16T07:08:37.147Z,1022.01
2019-04-16T07:09:26.506Z,1022.19
2019-04-16T07:10:29.569Z,1022.80
2019-04-16T07:11:25.794Z,1023.60
2019-04-16T07:12:25.850Z,1024.71
2019-04-16T07:13:25.751Z,1025.96
2019-04-16T07:14:25.934Z,1025.98
2019-04-16T07:15:28.582Z,1025.85
2019-04-16T07:16:28.885Z,1026.47
2019-04-16T07:17:26.095Z,1027.24
2019-04-16T07:18:25.674Z,1028.12
2019-04-16T07:19:25.657Z,1029.08
2019-04-16T07:20:25.643Z,1030.58
2019-04-16T07:21:25.627Z,1031.47
2019-04-16T07:22:25.609Z,1031.38
2019-04-16T07:23:26.019Z,1031.39
2019-04-16T07:24:30.131Z,1031.23
2019-04-16T07:25:27.850Z,1031.11
2019-04-16T07:26:25.583Z,1031.62
2019-04-16T07:27:25.828Z,1032.33
2019-04-16T07:28:26.784Z,1034.17
2019-04-16T07:29:25.682Z,1035.36
2019-04-16T07:30:25.580Z,1036.75
2019-04-16T07:31:33.280Z,1038.03
2019-04-16T07:32:25.590Z,1038.11
2019-04-16T07:33:25.460Z,1037.97
2019-04-16T07:34:25.449Z,1037.30
2019-04-16T07:35:27.136Z,1035.56
2019-04-16T07:36:27.238Z,1034.73
2019-04-16T07:37:25.415Z,1034.51
2019-04-16T07:38:25.401Z,1035.47
2019-04-16T07:39:29.366Z,1037.35
2019-04-16T07:40:25.376Z,1039.10
2019-04-16T07:41:25.362Z,1039.20
2019-04-16T07:42:26.466Z,1038.26
2019-04-16T07:43:25.340Z,1037.80
2019-04-16T07:44:25.331Z,1038.23
2019-04-16T07:45:25.319Z,1039.82
2019-04-16T07:46:25.306Z,1042.36
2019-04-16T07:47:25.293Z,1043.35
2019-04-16T07:48:25.287Z,1042.57
2019-04-16T07:49:26.518Z,1041.92
2019-04-16T07:50:25.265Z,1037.97
2019-04-16T07:51:25.253Z,1031.70
2019-04-16T07:52:25.245Z,1025.48
2019-04-16T07:53:25.235Z,1021.30
2019-04-16T07:54:25.224Z,1020.66
2019-04-16T07:55:26.750Z,1020.64
2019-04-16T07:56:25.200Z,1020.65
2019-04-16T07:57:25.193Z,1020.56
2019-04-16T07:58:25.179Z,1020.56
2019-04-16T07:59:25.178Z,1020.56
2019-04-16T08:00:25.163Z,1020.58
2019-04-16T08:01:25.150Z,1020.58
2019-04-16T08:02:25.134Z,1020.56
2019-04-16T08:03:26.904Z,1020.54
2019-04-16T08:04:29.058Z,1020.54
2019-04-16T08:05:27.816Z,1020.58
2019-04-16T08:06:25.092Z,1020.65
2019-04-16T08:07:25.082Z,1020.61
2019-04-16T08:08:25.502Z,1020.67
2019-04-16T08:09:28.935Z,1020.65
2019-04-16T08:10:25.050Z,1020.69
2019-04-16T08:11:25.036Z,1023.16
2019-04-16T08:12:30.659Z,1035.42
2019-04-16T08:13:25.019Z,1041.37
2019-04-16T08:14:25.004Z,1040.31
2019-04-16T08:15:24.990Z,1039.01
2019-04-16T08:16:24.981Z,1037.94
2019-04-16T08:17:24.970Z,1038.03
2019-04-16T08:18:24.962Z,1039.15
2019-04-16T08:19:36.097Z,1040.15
2019-04-16T08:20:24.943Z,1039.43
2019-04-16T08:21:24.927Z,1038.02
2019-04-16T08:22:24.943Z,1036.71
2019-04-16T08:23:24.908Z,1036.23
2019-04-16T08:24:25.544Z,1036.03
2019-04-16T08:25:24.889Z,1034.77
2019-04-16T08:26:24.880Z,1033.67
2019-04-16T08:27:24.882Z,1033.66
2019-04-16T08:29:12.403Z,1025.85
2019-04-16T08:30:12.390Z,1020.63
2019-04-16T08:31:13.130Z,1020.58
2019-04-16T08:32:12.901Z,1020.59
2019-04-16T08:33:12.356Z,1020.55
2019-04-16T08:34:12.349Z,1020.52
2019-04-16T08:35:12.335Z,1020.59
2019-04-16T08:36:12.325Z,1020.54
2019-04-16T08:37:12.384Z,1020.54
2019-04-16T08:38:12.311Z,1020.56
2019-04-16T08:39:12.309Z,1020.51
2019-04-16T08:40:13.161Z,1020.56
2019-04-16T08:41:13.206Z,1020.49
2019-04-16T08:42:12.289Z,1020.53
2019-04-16T08:43:12.270Z,1020.49
2019-04-16T08:44:12.250Z,1020.46
2019-04-16T08:45:12.239Z,1020.47
2019-04-16T08:46:12.232Z,1020.44
2019-04-16T08:47:12.979Z,1020.44
2019-04-16T08:48:17.000Z,1020.45
2019-04-16T08:49:14.852Z,1020.49
2019-04-16T08:50:12.622Z,1020.45
2019-04-16T08:51:12.176Z,1020.43
2019-04-16T08:52:12.182Z,1020.42
2019-04-16T08:53:14.277Z,1020.44
2019-04-16T08:54:12.184Z,1020.41
2019-04-16T08:55:12.128Z,1020.39
2019-04-16T08:56:12.179Z,1020.40
2019-04-16T08:57:12.116Z,1020.31
2019-04-16T08:58:12.852Z,1020.35
2019-04-16T08:59:12.090Z,1020.35
2019-04-16T09:00:15.140Z,1020.37
2019-04-16T09:01:12.065Z,1020.38
2019-04-16T09:02:12.113Z,1020.32
2019-04-16T09:03:15.235Z,1020.31
2019-04-16T09:04:12.034Z,1020.34
2019-04-16T09:05:12.015Z,1020.34
2019-04-16T09:06:13.481Z,1020.36
2019-04-16T09:07:13.408Z,1020.36
2019-04-16T09:08:13.766Z,1020.28
2019-04-16T09:09:15.549Z,1020.29
2019-04-16T09:10:18.084Z,1020.30
2019-04-16T09:11:22.636Z,1020.27
2019-04-16T09:12:11.931Z,1020.24
2019-04-16T09:13:12.011Z,1020.33
2019-04-16T09:14:11.913Z,1020.26
2019-04-16T09:15:11.904Z,1020.26
2019-04-16T09:16:11.952Z,1020.25
2019-04-16T09:17:11.877Z,1020.23
2019-04-16T09:18:11.882Z,1020.24
2019-04-16T09:19:11.851Z,1020.21
2019-04-16T09:20:11.842Z,1020.26
2019-04-16T09:21:11.834Z,1020.16
2019-04-16T09:22:15.472Z,1020.15
2019-04-16T09:23:11.807Z,1020.13
2019-04-16T09:24:11.797Z,1020.15
2019-04-16T09:25:13.888Z,1020.14
2019-04-16T09:26:15.057Z,1020.16
2019-04-16T09:27:13.309Z,1020.15
2019-04-16T09:28:24.557Z,1020.14
2019-04-16T09:29:11.740Z,1020.14
2019-04-16T09:30:16.920Z,1020.13
2019-04-16T09:31:11.707Z,1020.12
2019-04-16T09:32:11.700Z,1020.18
2019-04-16T09:33:11.693Z,1020.19
2019-04-16T09:34:11.712Z,1020.25
2019-04-16T09:35:18.544Z,1020.12
2019-04-16T09:36:11.645Z,1020.13
2019-04-16T09:37:11.633Z,1020.14
2019-04-16T09:38:13.183Z,1020.07
2019-04-16T09:39:11.606Z,1020.15
2019-04-16T09:40:17.797Z,1020.16
2019-04-16T09:41:11.580Z,1020.14
2019-04-16T09:42:11.571Z,1020.13
2019-04-16T09:43:17.663Z,1020.12
2019-04-16T09:44:11.545Z,1020.06
2019-04-16T09:45:11.532Z,1020.15
2019-04-16T09:46:20.612Z,1020.15
2019-04-16T09:47:11.506Z,1020.11
2019-04-16T09:48:11.496Z,1020.23
2019-04-16T09:49:11.482Z,1020.18
2019-04-16T09:50:11.664Z,1020.18
2019-04-16T09:51:11.460Z,1020.18
2019-04-16T09:52:11.445Z,1020.26
2019-04-16T09:53:11.434Z,1020.22
2019-04-16T09:54:13.584Z,1020.25
2019-04-16T09:55:11.419Z,1020.17
2019-04-16T09:56:11.403Z,1020.14
2019-04-16T09:57:11.387Z,1020.26
2019-04-16T09:58:11.387Z,1020.24
2019-04-16T09:59:15.741Z,1020.21
2019-04-16T10:00:11.358Z,1020.15
2019-04-16T10:01:11.338Z,1020.18
2019-04-16T10:02:11.326Z,1020.16
2019-04-16T10:03:11.323Z,1020.16
2019-04-16T10:04:11.304Z,1020.21
2019-04-16T10:05:11.299Z,1020.21
2019-04-16T10:06:11.289Z,1020.46
2019-04-16T10:07:11.275Z,1021.03
2019-04-16T10:08:12.628Z,1021.31
2019-04-16T10:09:11.270Z,1021.43
2019-04-16T10:10:11.247Z,1021.39
2019-04-16T10:11:11.232Z,1021.37
2019-04-16T10:12:11.239Z,1021.39
2019-04-16T10:13:11.212Z,1021.43
2019-04-16T10:14:11.211Z,1021.54
2019-04-16T10:15:11.203Z,1021.42
2019-04-16T10:16:13.547Z,1021.47
2019-04-16T10:17:11.232Z,1021.49
2019-04-16T10:18:11.185Z,1021.69
2019-04-16T10:19:11.174Z,1021.65
2019-04-16T10:20:11.172Z,1021.68
2019-04-16T10:21:11.156Z,1021.69
2019-04-16T10:22:11.139Z,1021.74
2019-04-16T10:23:11.123Z,1021.64
2019-04-16T10:24:13.125Z,1021.63
2019-04-16T10:25:11.110Z,1021.60
2019-04-16T10:26:11.106Z,1021.60
2019-04-16T10:27:11.095Z,1021.70
2019-04-16T10:28:11.092Z,1021.58
2019-04-16T10:29:11.093Z,1021.49
2019-04-16T10:30:11.080Z,1021.41
2019-04-16T10:31:11.075Z,1021.41
2019-04-16T10:32:11.077Z,1021.46
2019-04-16T10:33:11.081Z,1021.33
2019-04-16T10:34:11.079Z,1021.29
2019-04-16T10:35:11.054Z,1021.35
2019-04-16T10:36:11.066Z,1021.42
2019-04-16T10:37:11.037Z,1021.55
2019-04-16T10:38:13.534Z,1021.70
2019-04-16T10:39:11.033Z,1021.73
2019-04-16T10:40:11.018Z,1021.86
2019-04-16T10:41:11.057Z,1021.91
2019-04-16T10:42:11.038Z,1021.88
2019-04-16T10:43:11.029Z,1021.92
2019-04-16T10:44:11.005Z,1022.06
2019-04-16T10:45:11.029Z,1021.98
2019-04-16T10:46:10.991Z,1022.00
2019-04-16T10:47:12.563Z,1021.94
2019-04-16T10:48:10.995Z,1021.90
2019-04-16T10:49:11.055Z,1021.97
2019-04-16T10:50:11.002Z,1021.85
2019-04-16T10:51:15.233Z,1021.87
2019-04-16T10:52:10.974Z,1021.88
2019-04-16T10:53:10.995Z,1021.92
2019-04-16T10:54:10.972Z,1021.87
2019-04-16T10:55:12.158Z,1021.72
2019-04-16T10:56:10.957Z,1021.76
2019-04-16T10:57:10.965Z,1021.70
2019-04-16T10:58:10.985Z,1021.64
2019-04-16T10:59:10.952Z,1021.60
2019-04-16T11:00:10.946Z,1021.58
2019-04-16T11:01:10.947Z,1021.46
2019-04-16T11:02:10.984Z,1021.55
2019-04-16T11:03:10.942Z,1021.47
2019-04-16T11:04:10.953Z,1021.35
2019-04-16T11:05:10.952Z,1021.23
2019-04-16T11:06:10.961Z,1021.34
2019-04-16T11:07:10.936Z,1021.25
2019-04-16T11:08:10.932Z,1021.28
2019-04-16T11:09:10.935Z,1021.21
2019-04-16T11:10:11.945Z,1021.20
2019-04-16T11:11:10.924Z,1021.20
2019-04-16T11:12:10.922Z,1021.14
2019-04-16T11:13:10.922Z,1021.18
2019-04-16T11:14:10.934Z,1021.15
2019-04-16T11:15:11.727Z,1021.17
2019-04-16T11:16:10.928Z,1021.11
2019-04-16T11:17:10.933Z,1021.09
2019-04-16T11:18:10.934Z,1021.05
2019-04-16T11:19:10.923Z,1020.99
2019-04-16T11:20:10.961Z,1020.92
2019-04-16T11:21:10.916Z,1020.90
2019-04-16T11:22:10.910Z,1020.88
2019-04-16T11:23:10.942Z,1020.77
2019-04-16T11:24:10.898Z,1020.76
2019-04-16T11:25:11.028Z,1020.71
2019-04-16T11:26:10.895Z,1020.69
2019-04-16T11:27:10.884Z,1020.71
2019-04-16T11:28:13.758Z,1020.71
2019-04-16T11:29:10.897Z,1020.74
2019-04-16T11:30:10.908Z,1020.81
2019-04-16T11:31:10.881Z,1020.75
2019-04-16T11:32:10.878Z,1020.70
2019-04-16T11:33:10.875Z,1020.70
2019-04-16T11:34:10.872Z,1020.73
2019-04-16T11:35:13.083Z,1020.69
2019-04-16T11:36:19.456Z,1020.90
2019-04-16T11:37:10.868Z,1020.67
2019-04-16T11:38:11.131Z,1020.65
2019-04-16T11:39:10.872Z,1020.66
2019-04-16T11:40:10.866Z,1020.63
2019-04-16T11:41:10.905Z,1020.68
2019-04-16T11:42:10.907Z,1020.62
2019-04-16T11:43:10.862Z,1020.58
2019-04-16T11:44:15.539Z,1020.59
2019-04-16T11:45:11.484Z,1020.70
2019-04-16T11:46:10.883Z,1020.59
2019-04-16T11:47:10.934Z,1020.50
2019-04-16T11:48:11.188Z,1020.52
2019-04-16T11:49:10.859Z,1020.58
2019-04-16T11:50:10.858Z,1020.56
2019-04-16T11:51:10.855Z,1020.53
2019-04-16T11:52:11.118Z,1020.56
2019-04-16T11:53:10.849Z,1020.50
2019-04-16T11:54:11.844Z,1020.46
2019-04-16T11:55:10.847Z,1020.47
2019-04-16T11:56:10.892Z,1020.47
2019-04-16T11:57:13.109Z,1020.38
2019-04-16T11:58:10.846Z,1020.45
2019-04-16T11:59:10.837Z,1020.50
2019-04-16T12:00:11.054Z,1020.51
2019-04-16T12:01:10.882Z,1020.45
2019-04-16T12:02:10.875Z,1020.45
2019-04-16T12:03:10.866Z,1020.43
2019-04-16T12:04:14.891Z,1020.41
2019-04-16T12:05:10.835Z,1020.41
2019-04-16T12:06:10.883Z,1020.36
2019-04-16T12:07:10.831Z,1020.36
2019-04-16T12:08:10.862Z,1020.41
2019-04-16T12:09:10.835Z,1020.42
2019-04-16T12:10:10.835Z,1020.37
2019-04-16T12:11:11.059Z,1020.39
2019-04-16T12:12:10.871Z,1020.38